< < Back
Terminal Aerodrome Forecast


Current Version              Previous Versions:   1  2  3  4  5  6  7  8  9  

Terminal Aerodrome Forecast

030
FTUS44 KHUN 301120
TAFHSV
TAF
KHSV 301120Z 3012/3112 VRB03KT P6SM SKC
     FM301500 08005KT P6SM SCT040
     FM310000 VRB03KT P6SM SKC
      TEMPO 3110/3112 5SM BR=

Latest METAR

333
SAUS80 KWBC 301700 RRB
MTRHSV
METAR KHSV 301653Z 09006KT 10SM FEW040 32/20 A3009 RMK AO2 SLP182
T03220200


USA.gov is the U.S. government's official web portal to all federal, state and local government web resources and services.